createdAt,value
2022-12-22T00:05:45.289Z,12.10
2022-12-22T00:21:00.216Z,11.95
2022-12-22T00:36:15.267Z,11.75
2022-12-22T00:51:29.353Z,11.50
2022-12-22T01:06:43.202Z,11.38
2022-12-22T01:21:48.422Z,11.26
2022-12-22T01:37:03.270Z,11.24
2022-12-22T01:52:19.587Z,11.32
2022-12-22T02:07:47.651Z,11.38
2022-12-22T02:23:26.347Z,11.41
2022-12-22T02:38:43.517Z,11.43
2022-12-22T02:53:59.088Z,11.40
2022-12-22T03:09:14.186Z,11.41
2022-12-22T03:24:30.033Z,11.48
2022-12-22T03:39:26.987Z,11.62
2022-12-22T03:54:17.948Z,11.60
2022-12-22T04:09:08.760Z,11.49
2022-12-22T04:23:59.863Z,11.33
2022-12-22T04:53:42.185Z,11.40
2022-12-22T05:08:34.281Z,11.54
2022-12-22T05:23:25.616Z,11.62
2022-12-22T05:38:17.428Z,11.71
2022-12-22T05:53:08.509Z,11.78
2022-12-22T06:08:00.146Z,11.73
2022-12-22T06:22:51.823Z,11.82
2022-12-22T06:37:43.550Z,11.96
2022-12-22T06:52:34.443Z,12.02
2022-12-22T07:07:26.058Z,12.18
2022-12-22T07:22:17.532Z,12.34
2022-12-22T07:37:09.184Z,12.33
2022-12-22T07:52:01.002Z,12.30
2022-12-22T08:06:51.718Z,12.38
2022-12-22T08:21:48.393Z,12.42
2022-12-22T08:36:33.719Z,12.38
2022-12-22T08:51:24.864Z,12.30
2022-12-22T09:06:15.405Z,12.10
2022-12-22T09:21:06.277Z,11.82
2022-12-22T09:35:56.824Z,11.52
2022-12-22T09:50:48.064Z,11.47
2022-12-22T10:06:03.547Z,11.52
2022-12-22T10:21:01.945Z,11.64
2022-12-22T10:35:55.281Z,11.63
2022-12-22T10:50:46.197Z,11.51
2022-12-22T11:05:37.823Z,11.48
2022-12-22T11:20:28.835Z,11.57
2022-12-22T11:35:35.670Z,11.40
2022-12-22T11:51:00.740Z,11.35
2022-12-22T12:05:50.972Z,11.32
2022-12-22T12:20:49.452Z,11.26
2022-12-22T12:35:43.621Z,11.23
2022-12-22T12:50:35.013Z,11.22
2022-12-22T13:05:47.725Z,11.36
2022-12-22T13:20:45.024Z,11.20
2022-12-22T13:35:42.830Z,11.10
2022-12-22T13:50:35.990Z,11.14
2022-12-22T14:05:31.083Z,11.16
2022-12-22T14:20:28.170Z,11.17
2022-12-22T14:35:21.543Z,11.20
2022-12-22T14:50:18.923Z,11.28
2022-12-22T15:05:16.017Z,11.40
2022-12-22T15:20:10.124Z,11.42
2022-12-22T15:35:00.844Z,11.36
2022-12-22T15:49:52.291Z,11.38
2022-12-22T16:04:42.463Z,11.29
2022-12-22T16:19:32.768Z,11.19
2022-12-22T16:34:23.522Z,11.12
2022-12-22T16:49:14.372Z,11.08
2022-12-22T17:04:08.374Z,11.14
2022-12-22T17:19:02.307Z,11.17
2022-12-22T17:33:53.612Z,11.22
2022-12-22T18:03:36.436Z,11.38
2022-12-22T18:33:19.924Z,11.65
2022-12-22T18:48:11.219Z,11.60
2022-12-22T19:03:02.284Z,11.42
2022-12-22T19:17:52.905Z,11.31
2022-12-22T19:32:44.497Z,11.26
2022-12-22T19:47:38.814Z,11.21
2022-12-22T20:02:29.601Z,11.20
2022-12-22T20:17:21.265Z,11.20
2022-12-22T20:32:13.485Z,11.18
2022-12-22T20:47:04.540Z,11.18
2022-12-22T21:01:56.744Z,11.16
2022-12-22T21:16:49.019Z,11.13
2022-12-22T21:31:40.529Z,11.04
2022-12-22T21:46:31.687Z,11.02
2022-12-22T22:01:23.021Z,10.96
2022-12-22T22:16:14.743Z,10.90
2022-12-22T22:31:08.131Z,10.84
2022-12-22T22:46:01.830Z,10.79
2022-12-22T23:00:52.500Z,10.78
2022-12-22T23:15:43.877Z,10.79
2022-12-22T23:30:35.136Z,10.81
2022-12-22T23:45:30.086Z,10.86
